Airport View

Enter AWOS ICAO identifier for current METAR.

ex. KFNL

KBAB 190556Z AUTO 00000KT 10SM CLR 17/14 A3000 RMK AO2 SLP162 60000 T01740135 10272 20169 50007 $

19 Apr 2019 06:41

Other Area AWOS: KMYV - KLHM - KAUN - KGOO

TAF KBAB 190300Z 1903/2009 VRB06KT 9999 SKC QNH2994INS TX27/1922Z TN08/1912Z